Time;durP1;ratioP1;P1;durP2;ratioP2;P2;SDS_P1;SDS_P2;PMS_P1;PMS_P2;Temp;Humidity;BMP_temperature;BMP_pressure;BME280_temperature;BME280_humidity;BME280_pressure;Samples;Min_cycle;Max_cycle;Signal;HPM_P1;HPM_P2
2023/09/22 00:00:43;;;;;;;3.57;2.90;;;;;16.50;99317.00;;;;4913483;29;20912;-70
2023/09/22 00:03:31;;;;;;;4.63;2.90;;;;;16.50;99310.00;;;;4920067;29;20798;-70
2023/09/22 00:06:19;;;;;;;4.60;3.07;;;;;16.50;99317.00;;;;4925923;29;20236;-69
2023/09/22 00:09:07;;;;;;;4.10;3.33;;;;;16.50;99318.00;;;;4910494;29;20237;-70
2023/09/22 00:11:54;;;;;;;5.27;3.27;;;;;16.50;99316.00;;;;4919351;29;20249;-71
2023/09/22 00:14:40;;;;;;;5.17;2.80;;;;;16.60;99315.00;;;;4922224;29;20301;-70
2023/09/22 00:17:27;;;;;;;5.10;3.27;;;;;16.50;99323.00;;;;4909433;29;20735;-72
2023/09/22 00:20:15;;;;;;;5.47;3.03;;;;;16.50;99329.00;;;;4921205;29;20730;-70
2023/09/22 00:23:02;;;;;;;3.97;2.97;;;;;16.50;99328.00;;;;4922924;29;20292;-71
2023/09/22 00:25:48;;;;;;;3.93;2.90;;;;;16.40;99324.00;;;;4902352;29;20257;-70
2023/09/22 00:28:35;;;;;;;5.20;3.50;;;;;16.40;99323.00;;;;4913170;28;20225;-70
2023/09/22 00:31:21;;;;;;;5.27;3.50;;;;;16.40;99338.00;;;;4907630;29;20746;-71
2023/09/22 00:34:08;;;;;;;4.00;3.43;;;;;16.50;99333.00;;;;4918128;28;20253;-73
2023/09/22 00:36:56;;;;;;;5.80;3.87;;;;;16.50;99344.00;;;;4923337;29;20244;-75
2023/09/22 00:39:42;;;;;;;4.77;3.63;;;;;16.50;99353.00;;;;4923330;29;20288;-70
2023/09/22 00:42:29;;;;;;;6.63;4.10;;;;;16.50;99354.00;;;;4916556;28;20619;-70
2023/09/22 00:45:17;;;;;;;8.33;3.93;;;;;16.50;99368.00;;;;4918058;29;20364;-70
2023/09/22 00:48:05;;;;;;;6.53;4.30;;;;;16.40;99359.00;;;;4911460;29;20249;-70
2023/09/22 00:50:52;;;;;;;9.53;4.80;;;;;16.40;99355.00;;;;4916156;29;20369;-71
2023/09/22 00:53:40;;;;;;;6.07;4.53;;;;;16.50;99372.00;;;;4921018;28;20228;-70
2023/09/22 00:56:27;;;;;;;6.80;4.37;;;;;16.40;99375.00;;;;4918159;29;20245;-73
2023/09/22 00:59:15;;;;;;;5.63;4.32;;;;;16.40;99376.00;;;;4881718;29;1043175;-72
2023/09/22 01:02:02;;;;;;;6.03;4.30;;;;;16.40;99377.00;;;;4924141;29;20240;-70
2023/09/22 01:04:48;;;;;;;9.67;4.80;;;;;16.40;99364.00;;;;4916372;29;20312;-70
2023/09/22 01:07:35;;;;;;;9.10;4.70;;;;;16.50;99383.00;;;;4909601;29;20253;-67
2023/09/22 01:10:23;;;;;;;6.53;4.80;;;;;16.50;99365.00;;;;4921950;29;20281;-71
2023/09/22 01:13:09;;;;;;;7.17;4.63;;;;;16.30;99377.00;;;;4927832;29;22046;-70
2023/09/22 01:15:57;;;;;;;8.17;4.73;;;;;16.40;99379.00;;;;4916590;29;20249;-70
2023/09/22 01:18:43;;;;;;;8.17;4.30;;;;;16.40;99378.00;;;;4917855;29;20232;-67
2023/09/22 01:21:32;;;;;;;5.30;4.30;;;;;16.30;99379.00;;;;4918711;29;20313;-71
2023/09/22 01:24:18;;;;;;;4.63;3.70;;;;;16.30;99366.00;;;;4923099;29;20232;-71
2023/09/22 01:27:05;;;;;;;5.97;3.70;;;;;16.20;99368.00;;;;4921842;29;20244;-71
2023/09/22 01:29:51;;;;;;;6.90;3.30;;;;;16.20;99377.00;;;;4919241;28;20232;-67
2023/09/22 01:32:38;;;;;;;4.77;2.80;;;;;16.10;99382.00;;;;4915353;29;20236;-70
2023/09/22 01:35:24;;;;;;;5.20;3.00;;;;;16.10;99380.00;;;;4918197;29;20241;-70
2023/09/22 01:38:15;;;;;;;5.63;3.00;;;;;16.10;99390.00;;;;4921315;29;20388;-71
2023/09/22 01:41:01;;;;;;;2.97;2.67;;;;;16.00;99384.00;;;;4917498;29;20232;-73
2023/09/22 01:43:50;;;;;;;5.23;2.83;;;;;16.00;99383.00;;;;4927292;29;20786;-71
2023/09/22 01:46:36;;;;;;;4.83;2.80;;;;;15.90;99385.00;;;;4922120;28;20247;-71
2023/09/22 01:49:22;;;;;;;3.83;2.77;;;;;15.80;99396.00;;;;4920722;28;20597;-71
2023/09/22 01:52:09;;;;;;;4.40;2.63;;;;;15.70;99397.00;;;;4926442;29;20240;-71
2023/09/22 01:54:56;;;;;;;6.30;2.80;;;;;15.50;99390.00;;;;4914594;28;20243;-71
2023/09/22 01:57:43;;;;;;;5.87;2.83;;;;;15.60;99406.00;;;;4915367;29;20622;-71
2023/09/22 02:00:29;;;;;;;6.33;3.20;;;;;15.60;99409.00;;;;4919811;29;20230;-71
2023/09/22 02:03:15;;;;;;;4.40;3.13;;;;;15.60;99406.00;;;;4916894;28;20260;-70
2023/09/22 02:06:04;;;;;;;4.40;3.03;;;;;15.60;99407.00;;;;4921564;28;20240;-71
2023/09/22 02:08:50;;;;;;;5.23;3.63;;;;;15.60;99425.00;;;;4924272;29;20240;-70
2023/09/22 02:11:40;;;;;;;6.70;3.17;;;;;15.60;99438.00;;;;4920711;28;20667;-73
2023/09/22 02:14:26;;;;;;;4.20;3.10;;;;;15.60;99430.00;;;;4919486;29;21027;-71
2023/09/22 02:17:13;;;;;;;7.73;3.53;;;;;15.50;99432.00;;;;4927443;29;20238;-73
2023/09/22 02:19:59;;;;;;;5.23;3.90;;;;;15.40;99439.00;;;;4921119;29;20236;-72
2023/09/22 02:22:47;;;;;;;4.63;3.47;;;;;15.40;99433.00;;;;4914233;29;20236;-72
2023/09/22 02:25:34;;;;;;;5.93;3.87;;;;;15.40;99438.00;;;;4917226;28;21020;-70
2023/09/22 02:28:23;;;;;;;8.03;3.60;;;;;15.40;99439.00;;;;4914780;29;20232;-73
2023/09/22 02:31:09;;;;;;;8.40;4.33;;;;;15.40;99449.00;;;;4912674;29;20314;-71
2023/09/22 02:33:55;;;;;;;4.70;3.93;;;;;15.30;99448.00;;;;4916400;29;20911;-71
2023/09/22 02:36:43;;;;;;;5.70;4.53;;;;;15.40;99449.00;;;;4921086;29;20236;-73
2023/09/22 02:39:29;;;;;;;8.90;4.73;;;;;15.30;99459.00;;;;4910676;29;20228;-70
2023/09/22 02:42:15;;;;;;;6.83;4.53;;;;;15.30;99448.00;;;;4916945;29;20240;-70
2023/09/22 02:45:03;;;;;;;9.17;4.60;;;;;15.30;99452.00;;;;4922807;29;20336;-70
2023/09/22 02:47:50;;;;;;;6.63;4.53;;;;;15.30;99453.00;;;;4916479;29;20285;-71
2023/09/22 02:50:38;;;;;;;5.37;4.40;;;;;15.30;99457.00;;;;4923942;28;20233;-71
2023/09/22 02:53:24;;;;;;;7.43;4.30;;;;;15.30;99455.00;;;;4921436;29;20241;-71
2023/09/22 02:56:11;;;;;;;6.47;4.50;;;;;15.30;99462.00;;;;4919752;29;20259;-72
2023/09/22 02:58:57;;;;;;;8.93;4.43;;;;;15.40;99458.00;;;;4919154;29;20622;-72
2023/09/22 03:01:45;;;;;;;7.13;4.53;;;;;15.40;99457.00;;;;4929798;29;20235;-71
2023/09/22 03:04:34;;;;;;;6.20;3.97;;;;;15.40;99459.00;;;;4923324;29;20614;-70
2023/09/22 03:07:20;;;;;;;5.33;3.90;;;;;15.40;99467.00;;;;4919208;29;20249;-71
2023/09/22 03:10:07;;;;;;;7.10;4.47;;;;;15.40;99457.00;;;;4926743;29;20246;-72
2023/09/22 03:12:54;;;;;;;11.63;4.50;;;;;15.40;99459.00;;;;4923934;29;20637;-72
2023/09/22 03:15:40;;;;;;;9.30;4.30;;;;;15.40;99456.00;;;;4918838;29;20256;-70
2023/09/22 03:18:28;;;;;;;6.33;4.43;;;;;15.40;99453.00;;;;4925396;29;20331;-71
2023/09/22 03:21:19;;;;;;;7.10;4.47;;;;;15.40;99451.00;;;;4917421;29;20610;-71
2023/09/22 03:24:07;;;;;;;6.83;4.47;;;;;15.40;99462.00;;;;4922124;29;20229;-69
2023/09/22 03:26:53;;;;;;;7.20;4.13;;;;;15.40;99448.00;;;;4925909;29;20244;-71
2023/09/22 03:29:39;;;;;;;7.70;3.90;;;;;15.30;99454.00;;;;4921314;28;20232;-71
2023/09/22 03:32:27;;;;;;;10.00;4.40;;;;;15.30;99451.00;;;;4925821;29;20233;-70
2023/09/22 03:35:15;;;;;;;6.73;3.90;;;;;15.20;99443.00;;;;4924768;29;20356;-71
2023/09/22 03:38:03;;;;;;;6.77;3.67;;;;;15.20;99452.00;;;;4918455;29;20329;-71
2023/09/22 03:40:52;;;;;;;7.33;4.37;;;;;15.20;99442.00;;;;4915135;29;20244;-67
2023/09/22 03:43:38;;;;;;;6.63;4.40;;;;;15.30;99438.00;;;;4920594;29;20331;-71
2023/09/22 03:46:24;;;;;;;6.00;4.00;;;;;15.20;99445.00;;;;4918365;29;20332;-71
2023/09/22 03:49:11;;;;;;;7.37;4.10;;;;;15.10;99436.00;;;;4921235;28;20378;-71
2023/09/22 03:51:58;;;;;;;7.70;4.03;;;;;15.00;99431.00;;;;4924375;28;20233;-68
2023/09/22 03:54:45;;;;;;;10.00;4.40;;;;;15.00;99446.00;;;;4916926;29;20257;-70
2023/09/22 03:57:32;;;;;;;7.37;4.50;;;;;14.90;99440.00;;;;4923253;29;20781;-73
2023/09/22 04:00:19;;;;;;;11.63;4.63;;;;;14.90;99439.00;;;;4921901;29;20232;-71
2023/09/22 04:03:07;;;;;;;6.63;4.13;;;;;14.70;99433.00;;;;4921338;28;20308;-71
2023/09/22 04:05:54;;;;;;;8.33;4.23;;;;;14.70;99437.00;;;;4917732;29;20304;-69
2023/09/22 04:08:42;;;;;;;7.07;4.17;;;;;14.60;99438.00;;;;4920080;29;20265;-72
2023/09/22 04:11:28;;;;;;;7.77;4.07;;;;;14.60;99446.00;;;;4920933;29;20264;-71
2023/09/22 04:14:15;;;;;;;7.40;4.00;;;;;14.50;99448.00;;;;4917100;28;20740;-70
2023/09/22 04:17:01;;;;;;;8.17;4.13;;;;;14.50;99449.00;;;;4925087;29;20251;-69
2023/09/22 04:19:49;;;;;;;9.57;4.60;;;;;14.40;99456.00;;;;4915201;29;20999;-71
2023/09/22 04:22:36;;;;;;;12.90;4.13;;;;;14.40;99453.00;;;;4918561;29;20254;-72
2023/09/22 04:25:31;;;;;;;7.70;4.47;;;;;14.40;99466.00;;;;4910663;29;20262;-71
2023/09/22 04:28:23;;;;;;;9.53;4.50;;;;;14.40;99456.00;;;;4919864;28;20240;-73
2023/09/22 04:31:12;;;;;;;7.53;4.33;;;;;14.40;99464.00;;;;4923045;29;20238;-70
2023/09/22 04:33:59;;;;;;;9.60;4.40;;;;;14.40;99460.00;;;;4918644;28;20258;-70
2023/09/22 04:36:45;;;;;;;9.30;4.83;;;;;14.40;99462.00;;;;4918492;28;20273;-69
2023/09/22 04:39:31;;;;;;;9.70;4.03;;;;;14.50;99458.00;;;;4910724;29;20227;-70
2023/09/22 04:42:19;;;;;;;7.70;5.07;;;;;14.50;99461.00;;;;4921240;28;20237;-71
2023/09/22 04:45:09;;;;;;;6.23;4.37;;;;;14.50;99468.00;;;;4924240;29;20762;-70
2023/09/22 04:47:56;;;;;;;9.83;5.20;;;;;14.50;99464.00;;;;4909246;28;20253;-70
2023/09/22 04:50:43;;;;;;;6.47;4.80;;;;;14.50;99468.00;;;;4927076;28;20236;-71
2023/09/22 04:53:29;;;;;;;7.60;4.80;;;;;14.50;99479.00;;;;4916107;29;20285;-71
2023/09/22 04:56:16;;;;;;;10.17;5.17;;;;;14.50;99476.00;;;;4911893;29;20237;-70
2023/09/22 04:59:04;;;;;;;13.03;4.77;;;;;14.50;99487.00;;;;4918740;29;20240;-71
2023/09/22 05:01:50;;;;;;;10.77;4.77;;;;;14.50;99490.00;;;;4926014;29;20244;-70
2023/09/22 05:04:37;;;;;;;8.47;4.17;;;;;14.50;99492.00;;;;4916786;29;20627;-70
2023/09/22 05:07:23;;;;;;;10.10;4.63;;;;;14.60;99508.00;;;;4911417;29;20237;-70
2023/09/22 05:10:10;;;;;;;8.20;4.40;;;;;14.60;99500.00;;;;4922469;29;20247;-71
2023/09/22 05:12:56;;;;;;;7.03;3.67;;;;;14.60;99488.00;;;;4914968;28;20304;-70
2023/09/22 05:15:48;;;;;;;9.73;4.43;;;;;14.60;99482.00;;;;4924141;29;20241;-71
2023/09/22 05:18:34;;;;;;;5.50;4.13;;;;;14.60;99478.00;;;;4914495;29;20836;-72
2023/09/22 05:21:21;;;;;;;6.17;3.90;;;;;14.60;99474.00;;;;4917303;28;20385;-71
2023/09/22 05:24:07;;;;;;;8.03;4.07;;;;;14.70;99472.00;;;;4922031;29;20945;-70
2023/09/22 05:26:54;;;;;;;10.23;3.73;;;;;14.70;99479.00;;;;4921926;29;20625;-68
2023/09/22 05:29:41;;;;;;;7.07;3.60;;;;;14.60;99494.00;;;;4920365;28;20242;-71
2023/09/22 05:32:28;;;;;;;8.27;3.77;;;;;14.60;99489.00;;;;4919042;29;20241;-72
2023/09/22 05:35:15;;;;;;;8.17;3.73;;;;;14.60;99491.00;;;;4910052;29;20814;-68
2023/09/22 05:38:02;;;;;;;5.40;3.53;;;;;14.60;99489.00;;;;4927753;29;20273;-70
2023/09/22 05:40:49;;;;;;;5.20;3.40;;;;;14.60;99499.00;;;;4919401;29;20247;-71
2023/09/22 05:43:35;;;;;;;6.53;3.00;;;;;14.50;99496.00;;;;4917620;28;20231;-73
2023/09/22 05:46:23;;;;;;;5.73;3.00;;;;;14.60;99504.00;;;;4913033;29;20241;-69
2023/09/22 05:49:14;;;;;;;6.60;3.37;;;;;14.50;99493.00;;;;4919643;28;20250;-72
2023/09/22 05:52:00;;;;;;;4.90;2.87;;;;;14.50;99489.00;;;;4918452;29;20351;-71
2023/09/22 05:54:47;;;;;;;5.53;3.10;;;;;14.60;99491.00;;;;4928092;28;20245;-70
2023/09/22 05:57:34;;;;;;;5.53;3.20;;;;;14.50;99491.00;;;;4924514;29;20234;-70
2023/09/22 06:00:26;;;;;;;4.83;2.90;;;;;14.50;99492.00;;;;4918233;29;20226;-71
2023/09/22 06:03:12;;;;;;;6.10;3.00;;;;;14.50;99486.00;;;;4914735;28;20248;-68
2023/09/22 06:06:04;;;;;;;6.70;3.00;;;;;14.40;99473.00;;;;4917031;28;20242;-72
2023/09/22 06:08:51;;;;;;;3.07;2.57;;;;;14.40;99491.00;;;;4925422;29;20286;-69
2023/09/22 06:11:38;;;;;;;3.63;2.70;;;;;14.40;99490.00;;;;4920391;29;20366;-69
2023/09/22 06:14:26;;;;;;;5.30;3.03;;;;;14.40;99506.00;;;;4918673;29;20865;-68
2023/09/22 06:17:12;;;;;;;3.67;2.90;;;;;14.40;99514.00;;;;4916445;29;20250;-67
2023/09/22 06:19:59;;;;;;;6.03;2.90;;;;;14.40;99512.00;;;;4915066;29;20237;-69
2023/09/22 06:22:49;;;;;;;4.73;2.73;;;;;14.40;99518.00;;;;4921592;29;20350;-71
2023/09/22 06:25:36;;;;;;;3.57;2.50;;;;;14.40;99519.00;;;;4925764;28;20723;-72
2023/09/22 06:28:22;;;;;;;4.57;2.57;;;;;14.40;99510.00;;;;4914513;29;20238;-72
2023/09/22 06:31:08;;;;;;;4.67;2.90;;;;;14.40;99503.00;;;;4922994;29;20316;-72
2023/09/22 06:33:55;;;;;;;4.70;3.00;;;;;14.50;99490.00;;;;4914321;29;20233;-71
2023/09/22 06:36:41;;;;;;;4.80;3.03;;;;;14.50;99499.00;;;;4926430;28;20246;-73
2023/09/22 06:39:29;;;;;;;6.53;2.60;;;;;14.50;99502.00;;;;4926905;28;20365;-72
2023/09/22 06:42:15;;;;;;;7.73;3.00;;;;;14.60;99514.00;;;;4919561;28;20228;-71
2023/09/22 06:45:04;;;;;;;6.33;2.90;;;;;14.70;99527.00;;;;4913179;29;20247;-72
2023/09/22 06:47:50;;;;;;;4.20;2.70;;;;;14.70;99536.00;;;;4912732;29;20734;-71
2023/09/22 06:50:37;;;;;;;4.93;2.70;;;;;14.70;99557.00;;;;4926850;28;20262;-70
2023/09/22 06:53:24;;;;;;;6.00;2.60;;;;;14.70;99552.00;;;;4924278;29;20374;-70
2023/09/22 06:56:13;;;;;;;5.10;2.50;;;;;14.70;99542.00;;;;4915256;29;20740;-71
2023/09/22 06:58:59;;;;;;;5.10;2.83;;;;;14.80;99536.00;;;;4916486;29;20237;-71
2023/09/22 07:01:45;;;;;;;7.33;2.60;;;;;14.90;99538.00;;;;4916411;29;20239;-68
2023/09/22 07:04:33;;;;;;;4.57;2.43;;;;;14.90;99532.00;;;;4917402;29;20345;-72
2023/09/22 07:07:19;;;;;;;4.47;2.63;;;;;15.00;99537.00;;;;4919215;28;20362;-70
2023/09/22 07:10:09;;;;;;;7.27;2.60;;;;;15.00;99535.00;;;;4923027;29;20233;-73
2023/09/22 07:12:58;;;;;;;4.77;2.40;;;;;15.00;99542.00;;;;4927523;29;20247;-71
2023/09/22 07:15:44;;;;;;;2.93;2.57;;;;;15.10;99530.00;;;;4927647;29;20314;-72
2023/09/22 07:18:31;;;;;;;8.57;2.63;;;;;15.20;99521.00;;;;4925672;29;20238;-71
2023/09/22 07:21:17;;;;;;;3.77;2.20;;;;;15.20;99527.00;;;;4927607;29;20316;-70
2023/09/22 07:24:04;;;;;;;6.93;2.67;;;;;15.20;99539.00;;;;4924617;29;20234;-72
2023/09/22 07:26:50;;;;;;;5.83;2.40;;;;;15.30;99538.00;;;;4920009;29;20310;-73
2023/09/22 07:29:38;;;;;;;3.10;2.57;;;;;15.40;99548.00;;;;4927210;28;20234;-72
2023/09/22 07:32:24;;;;;;;5.97;2.67;;;;;15.40;99555.00;;;;4922298;29;20311;-73
2023/09/22 07:35:10;;;;;;;5.07;2.20;;;;;15.40;99568.00;;;;4925167;29;20370;-72
2023/09/22 07:37:57;;;;;;;2.67;1.83;;;;;15.60;99581.00;;;;4924617;29;20243;-69
2023/09/22 07:40:44;;;;;;;2.40;2.03;;;;;15.70;99576.00;;;;4919517;29;20234;-72
2023/09/22 07:43:31;;;;;;;5.13;2.43;;;;;15.70;99586.00;;;;4921408;29;20360;-73
2023/09/22 07:46:19;;;;;;;4.13;2.20;;;;;15.80;99588.00;;;;4918484;29;20246;-73
2023/09/22 07:49:06;;;;;;;2.63;2.00;;;;;15.90;99596.00;;;;4914748;29;20316;-71
2023/09/22 07:51:52;;;;;;;5.10;2.33;;;;;16.00;99590.00;;;;4918267;28;20286;-70
2023/09/22 07:54:39;;;;;;;4.30;2.00;;;;;16.00;99585.00;;;;4917949;28;20238;-71
2023/09/22 07:57:29;;;;;;;4.33;2.00;;;;;16.00;99584.00;;;;4922354;29;20233;-70
2023/09/22 08:00:18;;;;;;;6.70;2.93;;;;;16.10;99592.00;;;;4914641;29;20234;-72
2023/09/22 08:03:06;;;;;;;9.03;4.60;;;;;16.30;99590.00;;;;4922444;29;20244;-72
2023/09/22 08:05:52;;;;;;;5.20;2.00;;;;;16.30;99594.00;;;;4916297;29;20685;-73
2023/09/22 08:08:39;;;;;;;5.10;1.90;;;;;16.40;99601.00;;;;4921614;28;20758;-71
2023/09/22 08:11:25;;;;;;;7.83;2.20;;;;;16.30;99593.00;;;;4914604;29;20288;-71
2023/09/22 08:14:12;;;;;;;4.57;2.13;;;;;16.30;99602.00;;;;4919949;29;20275;-68
2023/09/22 08:16:58;;;;;;;4.80;2.00;;;;;16.40;99599.00;;;;4913776;29;20237;-71
2023/09/22 08:19:45;;;;;;;4.77;1.90;;;;;16.50;99602.00;;;;4924719;28;20240;-71
2023/09/22 08:22:32;;;;;;;4.20;1.90;;;;;16.50;99597.00;;;;4919119;29;20297;-72
2023/09/22 08:25:20;;;;;;;3.10;1.83;;;;;16.50;99606.00;;;;4915660;29;20240;-71
2023/09/22 08:28:06;;;;;;;3.20;1.93;;;;;16.50;99609.00;;;;4922911;28;20226;-71
2023/09/22 08:30:55;;;;;;;2.13;1.80;;;;;16.60;99616.00;;;;4923157;28;20229;-72
2023/09/22 08:33:42;;;;;;;8.07;2.00;;;;;16.80;99614.00;;;;4917445;29;20233;-71
2023/09/22 08:36:30;;;;;;;2.97;1.70;;;;;16.70;99612.00;;;;4927452;28;20236;-71
2023/09/22 08:39:17;;;;;;;2.47;1.93;;;;;16.70;99597.00;;;;4921285;29;20610;-72
2023/09/22 08:42:04;;;;;;;4.50;1.93;;;;;16.60;99609.00;;;;4917312;29;20252;-71
2023/09/22 08:44:50;;;;;;;2.60;1.90;;;;;16.60;99611.00;;;;4920859;29;20240;-71
2023/09/22 08:47:39;;;;;;;4.00;1.83;;;;;16.60;99611.00;;;;4925126;29;20315;-71
2023/09/22 08:50:26;;;;;;;4.50;1.80;;;;;16.60;99608.00;;;;4926436;29;20232;-70
2023/09/22 08:53:14;;;;;;;3.00;1.80;;;;;16.50;99612.00;;;;4922717;29;20340;-72
2023/09/22 08:56:04;;;;;;;5.87;2.30;;;;;16.50;99618.00;;;;4917202;29;20331;-72
2023/09/22 08:58:51;;;;;;;3.03;2.17;;;;;16.70;99605.00;;;;4909584;29;20232;-70
2023/09/22 09:01:37;;;;;;;2.83;2.30;;;;;16.80;99589.00;;;;4918328;29;20247;-71
2023/09/22 09:04:34;;;;;;;2.93;2.60;;;;;16.80;99606.00;;;;4918474;29;20233;-72
2023/09/22 09:07:23;;;;;;;3.93;2.47;;;;;16.80;99598.00;;;;4917993;29;20236;-72
2023/09/22 09:10:11;;;;;;;2.77;2.37;;;;;17.10;99605.00;;;;4914909;29;20293;-71
2023/09/22 09:13:01;;;;;;;4.50;2.20;;;;;17.20;99600.00;;;;4927973;28;20225;-71
2023/09/22 09:15:50;;;;;;;2.97;2.67;;;;;17.10;99602.00;;;;4923514;29;20970;-71
2023/09/22 09:18:36;;;;;;;3.63;2.63;;;;;17.30;99599.00;;;;4918162;29;21092;-71
2023/09/22 09:21:22;;;;;;;2.73;2.53;;;;;17.40;99594.00;;;;4921726;29;20301;-71
2023/09/22 09:24:09;;;;;;;2.80;2.60;;;;;17.50;99576.00;;;;4913602;29;20225;-72
2023/09/22 09:26:57;;;;;;;3.20;2.63;;;;;17.40;99588.00;;;;4920739;29;20237;-72
2023/09/22 09:29:43;;;;;;;4.57;2.70;;;;;17.40;99582.00;;;;4927723;28;20301;-72
2023/09/22 09:32:30;;;;;;;5.87;2.60;;;;;17.30;99582.00;;;;4927123;29;20364;-70
2023/09/22 09:35:28;;;;;;;4.00;2.53;;;;;17.50;99586.00;;;;4924271;29;20272;-70
2023/09/22 09:38:42;;;;;;;3.03;2.30;;;;;18.10;99577.00;;;;4916795;29;20324;-72
2023/09/22 09:41:29;;;;;;;4.73;2.00;;;;;18.40;99585.00;;;;4918385;28;20234;-72
2023/09/22 09:44:17;;;;;;;2.20;2.00;;;;;18.60;99578.00;;;;4926935;29;20729;-71
2023/09/22 09:47:04;;;;;;;5.37;2.20;;;;;18.60;99570.00;;;;4926580;29;20228;-72
2023/09/22 09:49:53;;;;;;;3.40;1.87;;;;;18.80;99590.00;;;;4924333;29;20283;-70
2023/09/22 09:52:52;;;;;;;3.83;2.00;;;;;18.90;99589.00;;;;4923328;29;20273;-71
2023/09/22 09:55:39;;;;;;;3.30;1.77;;;;;18.90;99588.00;;;;4926211;28;20692;-69
2023/09/22 09:58:29;;;;;;;4.57;1.70;;;;;19.10;99593.00;;;;4911128;29;20228;-71
2023/09/22 10:01:19;;;;;;;3.17;1.63;;;;;19.10;99590.00;;;;4925181;28;20271;-75
2023/09/22 10:04:07;;;;;;;4.40;1.77;;;;;19.40;99602.00;;;;4920846;29;20349;-72
2023/09/22 10:06:55;;;;;;;3.07;1.70;;;;;19.50;99602.00;;;;4923164;28;20248;-71
2023/09/22 10:09:43;;;;;;;10.63;1.70;;;;;19.20;99611.00;;;;4929918;28;20747;-69
2023/09/22 10:12:30;;;;;;;3.30;1.43;;;;;18.90;99620.00;;;;4917439;29;20240;-71
2023/09/22 10:15:38;;;;;;;69.50;3.97;;;;;18.60;99617.00;;;;4920956;29;20236;-70
2023/09/22 10:18:47;;;;;;;141.17;9.87;;;;;18.40;99625.00;;;;4920644;29;20721;-69
2023/09/22 10:21:46;;;;;;;35.50;3.00;;;;;18.40;99625.00;;;;4919958;29;20232;-72
2023/09/22 10:24:37;;;;;;;6.53;1.60;;;;;18.30;99627.00;;;;4928907;29;20224;-71
2023/09/22 10:27:26;;;;;;;2.70;1.30;;;;;18.20;99639.00;;;;4917952;29;20257;-68
2023/09/22 10:30:13;;;;;;;1.50;1.20;;;;;18.20;99638.00;;;;4921217;29;20851;-68
2023/09/22 10:33:26;;;;;;;2.30;1.20;;;;;18.10;99637.00;;;;4912267;29;20246;-67
2023/09/22 10:36:46;;;;;;;2.00;1.33;;;;;18.20;99639.00;;;;4918568;29;20253;-67
2023/09/22 10:39:49;;;;;;;3.23;1.40;;;;;18.30;99644.00;;;;4927450;29;20238;-67
2023/09/22 10:42:41;;;;;;;2.00;1.30;;;;;18.20;99645.00;;;;4923504;29;20612;-66
2023/09/22 10:45:28;;;;;;;2.27;1.40;;;;;18.30;99645.00;;;;4922699;28;20245;-68
2023/09/22 10:48:15;;;;;;;3.30;1.40;;;;;18.30;99647.00;;;;4929095;29;20228;-68
2023/09/22 10:51:02;;;;;;;4.90;1.77;;;;;18.30;99640.00;;;;4936046;29;20240;-67
2023/09/22 10:53:58;;;;;;;2.97;1.37;;;;;18.80;99639.00;;;;4921563;29;20266;-66
2023/09/22 10:56:44;;;;;;;2.20;1.40;;;;;19.30;99641.00;;;;4926271;29;20245;-68
2023/09/22 10:59:33;;;;;;;3.33;1.40;;;;;19.70;99653.00;;;;4926916;28;20312;-69
2023/09/22 11:02:27;;;;;;;5.23;1.40;;;;;19.60;99654.00;;;;4921523;29;20281;-67
2023/09/22 11:05:14;;;;;;;1.83;1.27;;;;;19.30;99662.00;;;;4917230;28;20248;-70
2023/09/22 11:08:01;;;;;;;4.43;1.30;;;;;19.20;99658.00;;;;4918130;29;20233;-69
2023/09/22 11:10:50;;;;;;;2.33;1.23;;;;;18.80;99661.00;;;;4917296;29;20239;-68
2023/09/22 11:13:37;;;;;;;2.47;1.37;;;;;18.80;99662.00;;;;4928393;29;20815;-69
2023/09/22 11:16:24;;;;;;;3.03;1.30;;;;;18.70;99660.00;;;;4930076;29;20241;-68
2023/09/22 11:19:11;;;;;;;2.07;1.30;;;;;18.80;99660.00;;;;4926940;29;20832;-68
2023/09/22 11:21:59;;;;;;;2.43;1.20;;;;;18.60;99663.00;;;;4923497;29;20236;-66
2023/09/22 11:24:46;;;;;;;2.43;1.23;;;;;18.70;99660.00;;;;4927917;28;20243;-70
2023/09/22 11:27:42;;;;;;;3.43;1.33;;;;;19.10;99669.00;;;;4920353;29;20237;-69
2023/09/22 11:30:28;;;;;;;3.80;1.30;;;;;19.70;99660.00;;;;4923850;29;20301;-67
2023/09/22 11:33:16;;;;;;;3.10;1.20;;;;;20.30;99667.00;;;;4921600;29;20245;-69
2023/09/22 11:36:03;;;;;;;2.37;0.97;;;;;20.50;99661.00;;;;4923697;29;20246;-69
2023/09/22 11:38:54;;;;;;;1.40;1.30;;;;;20.70;99667.00;;;;4929896;28;20751;-69
2023/09/22 11:41:40;;;;;;;3.70;1.27;;;;;20.80;99676.00;;;;4923033;29;20715;-70
2023/09/22 11:44:28;;;;;;;3.07;1.50;;;;;20.60;99674.00;;;;4926200;29;20235;-69
2023/09/22 11:47:21;;;;;;;2.63;1.40;;;;;20.20;99679.00;;;;4925159;29;20468;-70
2023/09/22 11:50:08;;;;;;;3.13;1.50;;;;;20.40;99677.00;;;;4925868;29;20315;-71
2023/09/22 11:53:08;;;;;;;2.97;1.37;;;;;20.50;99674.00;;;;4921685;29;20251;-69
2023/09/22 11:55:55;;;;;;;2.60;1.50;;;;;20.60;99686.00;;;;4921585;29;20734;-70
2023/09/22 11:58:42;;;;;;;3.13;1.40;;;;;20.40;99688.00;;;;4919232;29;20784;-68
2023/09/22 12:01:29;;;;;;;3.23;1.53;;;;;20.00;99691.00;;;;4923307;29;20716;-69
2023/09/22 12:04:18;;;;;;;3.83;1.40;;;;;20.00;99692.00;;;;4923849;29;20789;-69
2023/09/22 12:07:05;;;;;;;3.37;1.30;;;;;20.40;99695.00;;;;4927367;29;20324;-70
2023/09/22 12:09:51;;;;;;;1.40;1.13;;;;;20.60;99689.00;;;;4928934;29;20355;-67
2023/09/22 12:12:39;;;;;;;1.80;1.40;;;;;20.60;99683.00;;;;4927582;29;20327;-68
2023/09/22 12:15:25;;;;;;;3.17;1.67;;;;;20.60;99703.00;;;;4922275;29;20235;-69
2023/09/22 12:18:14;;;;;;;2.03;1.20;;;;;20.50;99695.00;;;;4928972;29;20387;-70
2023/09/22 12:21:00;;;;;;;4.40;1.40;;;;;20.50;99700.00;;;;4927083;29;20235;-68
2023/09/22 12:23:46;;;;;;;2.20;1.40;;;;;20.20;99693.00;;;;4922666;29;20236;-69
2023/09/22 12:26:33;;;;;;;2.97;1.40;;;;;20.20;99689.00;;;;4924591;29;20298;-69
2023/09/22 12:29:20;;;;;;;2.03;1.40;;;;;20.20;99707.00;;;;4924250;29;20234;-69
2023/09/22 12:32:07;;;;;;;3.00;1.23;;;;;20.00;99705.00;;;;4923716;29;20227;-70
2023/09/22 12:34:55;;;;;;;2.30;1.40;;;;;20.00;99713.00;;;;4906295;29;20310;-68
2023/09/22 12:37:41;;;;;;;4.30;1.40;;;;;20.10;99713.00;;;;4921286;29;20430;-69
2023/09/22 12:40:28;;;;;;;2.10;1.30;;;;;20.50;99711.00;;;;4925602;28;20415;-69
2023/09/22 12:43:14;;;;;;;3.43;1.17;;;;;20.80;99712.00;;;;4922391;29;20233;-69
2023/09/22 12:46:01;;;;;;;4.63;1.60;;;;;21.20;99713.00;;;;4927472;29;20371;-68
2023/09/22 12:48:47;;;;;;;2.00;1.20;;;;;21.30;99711.00;;;;4920641;29;20607;-67
2023/09/22 12:51:35;;;;;;;2.10;1.40;;;;;21.10;99709.00;;;;4925326;28;20237;-68
2023/09/22 12:54:21;;;;;;;3.10;1.40;;;;;20.90;99714.00;;;;4914686;28;20976;-68
2023/09/22 12:57:08;;;;;;;2.77;1.40;;;;;20.90;99712.00;;;;4923708;28;20275;-67
2023/09/22 12:59:54;;;;;;;2.93;1.40;;;;;21.20;99713.00;;;;4925263;28;20311;-71
2023/09/22 13:02:40;;;;;;;4.63;1.47;;;;;21.40;99713.00;;;;4920895;29;20234;-68
2023/09/22 13:05:27;;;;;;;5.83;1.60;;;;;21.40;99720.00;;;;4922779;28;20239;-69
2023/09/22 13:08:15;;;;;;;32.33;2.90;;;;;21.30;99721.00;;;;4926587;28;20283;-69
2023/09/22 13:11:02;;;;;;;3.13;1.43;;;;;21.10;99717.00;;;;4924257;28;20795;-69
2023/09/22 13:13:50;;;;;;;5.83;1.50;;;;;21.00;99723.00;;;;4919011;29;20242;-66
2023/09/22 13:16:36;;;;;;;2.50;1.30;;;;;20.80;99711.00;;;;4926732;29;20635;-70
2023/09/22 13:19:23;;;;;;;1.83;1.40;;;;;20.90;99706.00;;;;4926249;29;20244;-68
2023/09/22 13:22:10;;;;;;;2.27;1.20;;;;;21.40;99712.00;;;;4926866;29;20260;-68
2023/09/22 13:24:58;;;;;;;11.87;1.60;;;;;22.00;99713.00;;;;4916097;29;20255;-70
2023/09/22 13:27:44;;;;;;;2.27;1.40;;;;;22.40;99716.00;;;;4920060;29;20292;-66
2023/09/22 13:30:31;;;;;;;5.13;1.40;;;;;22.40;99711.00;;;;4924931;28;20231;-70
2023/09/22 13:33:17;;;;;;;2.00;1.30;;;;;22.40;99716.00;;;;4925830;29;20245;-69
2023/09/22 13:36:04;;;;;;;3.60;1.43;;;;;22.00;99719.00;;;;4921880;29;20722;-65
2023/09/22 13:38:52;;;;;;;12.87;1.90;;;;;21.80;99712.00;;;;4918759;29;20249;-66
2023/09/22 13:41:39;;;;;;;14.97;1.93;;;;;21.30;99725.00;;;;4922494;28;20295;-65
2023/09/22 13:44:26;;;;;;;1.73;1.20;;;;;21.10;99715.00;;;;4924382;29;20230;-69
2023/09/22 13:47:12;;;;;;;2.00;1.30;;;;;21.40;99716.00;;;;4923785;29;20650;-66
2023/09/22 13:49:59;;;;;;;1.27;1.13;;;;;21.80;99723.00;;;;4927808;28;20253;-66
2023/09/22 13:52:46;;;;;;;2.50;1.17;;;;;22.10;99718.00;;;;4917774;28;20597;-67
2023/09/22 13:55:33;;;;;;;2.67;1.23;;;;;21.90;99715.00;;;;4920441;29;20228;-65
2023/09/22 13:58:21;;;;;;;1.90;1.27;;;;;21.40;99707.00;;;;4917223;29;20287;-68